Time;durP1;ratioP1;P1;durP2;ratioP2;P2;SDS_P1;SDS_P2;PMS_P1;PMS_P2;Temp;Humidity;BMP_temperature;BMP_pressure;BME280_temperature;BME280_humidity;BME280_pressure;Samples;Min_cycle;Max_cycle;Signal;HPM_P1;HPM_P2
2022/03/13 00:02:08;;;;;;;15.15;9.68;;;;;;;;;;4982185;28;20050;-63
2022/03/13 00:04:36;;;;;;;17.65;11.02;;;;;;;;;;4968252;28;20063;-63
2022/03/13 00:07:09;;;;;;;16.88;10.75;;;;;;;;;;4983451;28;20054;-62
2022/03/13 00:09:37;;;;;;;14.65;10.13;;;;;;;;;;4985546;28;20054;-63
2022/03/13 00:12:07;;;;;;;16.73;10.15;;;;;;;;;;4970179;28;20093;-62
2022/03/13 00:14:34;;;;;;;17.25;10.30;;;;;;;;;;4976231;28;20049;-62
2022/03/13 00:17:01;;;;;;;15.93;10.15;;;;;;;;;;4972477;28;20054;-63
2022/03/13 00:19:28;;;;;;;15.82;10.30;;;;;;;;;;4984670;28;20060;-63
2022/03/13 00:21:55;;;;;;;18.38;10.50;;;;;;;;;;4966167;28;20061;-61
2022/03/13 00:24:22;;;;;;;18.08;10.20;;;;;;;;;;4973400;28;20051;-63
2022/03/13 00:26:52;;;;;;;15.88;10.38;;;;;;;;;;4958117;28;20984;-62
2022/03/13 00:29:18;;;;;;;17.70;10.77;;;;;;;;;;4972620;28;20059;-63
2022/03/13 00:31:45;;;;;;;16.52;10.23;;;;;;;;;;4972277;28;20420;-63
2022/03/13 00:34:12;;;;;;;15.48;10.65;;;;;;;;;;4980323;28;20057;-62
2022/03/13 00:36:39;;;;;;;16.63;9.85;;;;;;;;;;4980808;28;20046;-63
2022/03/13 00:39:06;;;;;;;13.57;9.18;;;;;;;;;;4978808;28;20066;-63
2022/03/13 00:41:32;;;;;;;16.45;9.75;;;;;;;;;;4980783;28;20464;-63
2022/03/13 00:43:58;;;;;;;17.33;11.10;;;;;;;;;;4967878;28;20062;-63
2022/03/13 00:46:25;;;;;;;15.00;10.02;;;;;;;;;;4981544;28;20196;-63
2022/03/13 00:48:52;;;;;;;14.25;9.88;;;;;;;;;;4964589;28;20090;-63
2022/03/13 00:51:19;;;;;;;16.08;9.25;;;;;;;;;;4974127;28;20471;-63
2022/03/13 00:53:46;;;;;;;15.65;9.70;;;;;;;;;;4966309;28;20054;-62
2022/03/13 00:56:12;;;;;;;13.90;8.85;;;;;;;;;;4970730;28;20050;-62
2022/03/13 00:58:40;;;;;;;15.88;9.18;;;;;;;;;;4970893;28;20411;-63
2022/03/13 01:01:07;;;;;;;13.43;8.35;;;;;;;;;;4965716;28;20050;-62
2022/03/13 01:03:37;;;;;;;14.32;9.45;;;;;;;;;;4978617;28;20544;-62
2022/03/13 01:06:03;;;;;;;13.98;8.77;;;;;;;;;;4968614;28;20133;-63
2022/03/13 01:08:30;;;;;;;14.30;9.63;;;;;;;;;;4969709;28;20042;-63
2022/03/13 01:10:57;;;;;;;14.88;9.65;;;;;;;;;;4975995;28;20059;-62
2022/03/13 01:13:23;;;;;;;14.68;9.00;;;;;;;;;;4979512;28;20053;-63
2022/03/13 01:15:54;;;;;;;13.18;8.35;;;;;;;;;;4977767;28;20046;-63
2022/03/13 01:18:20;;;;;;;16.52;9.32;;;;;;;;;;4980937;28;20061;-63
2022/03/13 01:20:47;;;;;;;15.25;9.98;;;;;;;;;;4978226;28;20050;-63
2022/03/13 01:23:15;;;;;;;14.50;10.02;;;;;;;;;;4976983;28;20057;-63
2022/03/13 01:25:41;;;;;;;15.55;9.57;;;;;;;;;;4982210;28;20050;-63
2022/03/13 01:28:11;;;;;;;17.73;10.43;;;;;;;;;;4977674;28;20060;-62
2022/03/13 01:30:37;;;;;;;16.05;10.80;;;;;;;;;;4974914;28;20061;-62
2022/03/13 01:33:04;;;;;;;16.73;10.73;;;;;;;;;;4979602;28;20050;-62
2022/03/13 01:35:30;;;;;;;17.05;10.60;;;;;;;;;;4972861;28;20065;-63
2022/03/13 01:37:58;;;;;;;17.25;11.60;;;;;;;;;;4976602;28;20519;-63
2022/03/13 01:40:24;;;;;;;22.70;11.93;;;;;;;;;;4974974;28;20078;-63
2022/03/13 01:42:51;;;;;;;18.73;11.88;;;;;;;;;;4983988;28;20048;-62
2022/03/13 01:45:19;;;;;;;18.25;11.57;;;;;;;;;;4980110;28;20054;-63
2022/03/13 01:47:46;;;;;;;23.30;12.50;;;;;;;;;;4978718;28;20205;-62
2022/03/13 01:50:13;;;;;;;18.98;12.45;;;;;;;;;;4969641;28;20050;-62
2022/03/13 01:52:40;;;;;;;19.75;13.30;;;;;;;;;;4978832;28;20054;-62
2022/03/13 01:55:07;;;;;;;21.55;14.48;;;;;;;;;;4969882;28;20046;-63
2022/03/13 01:57:37;;;;;;;22.77;13.63;;;;;;;;;;4964985;28;20435;-62
2022/03/13 02:00:04;;;;;;;21.75;13.65;;;;;;;;;;4968601;28;20066;-63
2022/03/13 02:02:32;;;;;;;22.23;13.83;;;;;;;;;;4969890;28;20133;-62
2022/03/13 02:04:59;;;;;;;22.33;12.97;;;;;;;;;;4964928;28;20051;-62
2022/03/13 02:07:26;;;;;;;22.48;13.73;;;;;;;;;;4985173;28;20089;-63
2022/03/13 02:09:53;;;;;;;22.77;13.98;;;;;;;;;;4976368;28;20051;-63
2022/03/13 02:12:20;;;;;;;19.90;13.75;;;;;;;;;;4984855;28;20058;-62
2022/03/13 02:14:48;;;;;;;19.88;12.65;;;;;;;;;;4975259;28;20081;-63
2022/03/13 02:17:25;;;;;;;24.20;15.10;;;;;;;;;;4964316;28;20050;-63
2022/03/13 02:19:52;;;;;;;19.70;13.38;;;;;;;;;;4972233;28;20055;-62
2022/03/13 02:22:18;;;;;;;22.13;13.95;;;;;;;;;;4971777;28;20576;-62
2022/03/13 02:24:48;;;;;;;21.52;13.82;;;;;;;;;;4970021;28;20055;-63
2022/03/13 02:27:18;;;;;;;20.58;13.60;;;;;;;;;;4962493;28;20078;-61
2022/03/13 02:29:45;;;;;;;23.85;14.60;;;;;;;;;;4962885;28;20046;-62
2022/03/13 02:32:11;;;;;;;22.13;14.43;;;;;;;;;;4960361;28;20066;-62
2022/03/13 02:34:38;;;;;;;19.58;13.48;;;;;;;;;;4967913;28;20054;-63
2022/03/13 02:37:04;;;;;;;23.38;13.90;;;;;;;;;;4979174;28;20051;-61
2022/03/13 02:39:34;;;;;;;21.02;14.25;;;;;;;;;;4961550;28;20047;-62
2022/03/13 02:42:00;;;;;;;20.33;13.85;;;;;;;;;;4968581;28;20050;-63
2022/03/13 02:44:26;;;;;;;23.23;15.25;;;;;;;;;;4966193;28;20104;-62
2022/03/13 02:46:53;;;;;;;24.63;15.40;;;;;;;;;;4975034;28;20058;-63
2022/03/13 02:49:20;;;;;;;24.42;15.35;;;;;;;;;;4969277;28;20054;-63
2022/03/13 02:51:47;;;;;;;21.35;12.82;;;;;;;;;;4974952;28;20077;-63
2022/03/13 02:54:15;;;;;;;20.85;13.80;;;;;;;;;;4974393;28;20054;-62
2022/03/13 02:56:41;;;;;;;23.92;14.52;;;;;;;;;;4966360;28;20526;-63
2022/03/13 02:59:08;;;;;;;21.02;13.63;;;;;;;;;;4973735;28;20065;-63
2022/03/13 03:01:37;;;;;;;23.20;15.63;;;;;;;;;;4978139;28;20060;-61
2022/03/13 03:04:03;;;;;;;24.27;16.20;;;;;;;;;;4979943;28;20093;-62
2022/03/13 03:06:30;;;;;;;20.55;12.75;;;;;;;;;;4977432;28;20049;-62
2022/03/13 03:08:57;;;;;;;23.80;14.18;;;;;;;;;;4980585;28;20066;-61
2022/03/13 03:11:23;;;;;;;20.25;13.77;;;;;;;;;;4957050;28;20145;-62
2022/03/13 03:13:49;;;;;;;20.35;12.88;;;;;;;;;;4977088;28;20054;-63
2022/03/13 03:16:16;;;;;;;20.30;13.95;;;;;;;;;;4976974;28;20047;-62
2022/03/13 03:18:42;;;;;;;21.40;14.52;;;;;;;;;;4972909;28;20653;-63
2022/03/13 03:21:08;;;;;;;20.98;13.45;;;;;;;;;;4979346;28;20043;-61
2022/03/13 03:23:35;;;;;;;21.77;13.93;;;;;;;;;;4971991;28;20050;-62
2022/03/13 03:26:01;;;;;;;23.75;14.45;;;;;;;;;;4973925;28;20051;-62
2022/03/13 03:28:28;;;;;;;19.58;13.57;;;;;;;;;;4970260;28;20050;-62
2022/03/13 03:30:54;;;;;;;25.42;13.82;;;;;;;;;;4974755;28;20047;-63
2022/03/13 03:33:20;;;;;;;23.13;13.32;;;;;;;;;;4978643;28;20050;-63
2022/03/13 03:35:47;;;;;;;20.35;13.55;;;;;;;;;;4960716;28;20062;-63
2022/03/13 03:38:14;;;;;;;20.95;12.88;;;;;;;;;;4967857;28;20065;-63
2022/03/13 03:40:40;;;;;;;22.02;14.32;;;;;;;;;;4971680;28;20058;-64
2022/03/13 03:43:07;;;;;;;22.20;13.48;;;;;;;;;;4974975;28;20050;-62
2022/03/13 03:45:33;;;;;;;23.50;14.15;;;;;;;;;;4983118;28;20055;-63
2022/03/13 03:47:59;;;;;;;22.95;14.32;;;;;;;;;;4963700;28;20055;-62
2022/03/13 03:50:26;;;;;;;22.02;13.90;;;;;;;;;;4967885;28;20054;-60
2022/03/13 03:52:55;;;;;;;23.00;14.52;;;;;;;;;;4930686;28;1115517;-62
2022/03/13 03:55:22;;;;;;;24.08;13.43;;;;;;;;;;4975575;28;20133;-63
2022/03/13 03:57:49;;;;;;;21.95;13.82;;;;;;;;;;4973436;28;20046;-62
2022/03/13 04:00:15;;;;;;;21.40;13.32;;;;;;;;;;4980866;28;20054;-62
2022/03/13 04:02:42;;;;;;;22.48;14.38;;;;;;;;;;4982211;28;20559;-62
2022/03/13 04:05:09;;;;;;;19.88;13.80;;;;;;;;;;4970713;28;20056;-63
2022/03/13 04:07:38;;;;;;;18.30;13.05;;;;;;;;;;4971315;28;20058;-63
2022/03/13 04:10:06;;;;;;;21.13;13.77;;;;;;;;;;4968752;28;20055;-62
2022/03/13 04:12:34;;;;;;;24.60;12.82;;;;;;;;;;4977548;28;20058;-63
2022/03/13 04:15:01;;;;;;;20.58;14.23;;;;;;;;;;4960939;28;20050;-62
2022/03/13 04:17:28;;;;;;;20.45;13.50;;;;;;;;;;4966649;28;20061;-63
2022/03/13 04:19:54;;;;;;;21.50;13.20;;;;;;;;;;4965794;28;20047;-62
2022/03/13 04:22:20;;;;;;;18.20;12.63;;;;;;;;;;4972963;28;20061;-63
2022/03/13 04:24:47;;;;;;;19.45;13.32;;;;;;;;;;4974163;28;20046;-63
2022/03/13 04:27:13;;;;;;;22.23;13.30;;;;;;;;;;4975924;28;20495;-62
2022/03/13 04:29:40;;;;;;;20.98;13.23;;;;;;;;;;4978311;28;20441;-63
2022/03/13 04:32:08;;;;;;;20.65;13.27;;;;;;;;;;4959470;28;20058;-62
2022/03/13 04:34:35;;;;;;;17.92;12.32;;;;;;;;;;4969203;28;20053;-62
2022/03/13 04:37:02;;;;;;;18.85;12.18;;;;;;;;;;4973355;28;20050;-62
2022/03/13 04:39:35;;;;;;;19.13;12.20;;;;;;;;;;4964096;28;20128;-63
2022/03/13 04:42:05;;;;;;;18.95;12.70;;;;;;;;;;4975574;28;20051;-63
2022/03/13 04:44:32;;;;;;;21.25;12.93;;;;;;;;;;4977965;28;20057;-62
2022/03/13 04:46:59;;;;;;;19.85;13.27;;;;;;;;;;4963884;28;20051;-63
2022/03/13 04:49:25;;;;;;;17.35;12.10;;;;;;;;;;4963938;28;20053;-61
2022/03/13 04:51:51;;;;;;;19.33;12.05;;;;;;;;;;4973755;28;20423;-62
2022/03/13 04:54:18;;;;;;;21.48;13.68;;;;;;;;;;4976934;28;20058;-63
2022/03/13 04:56:45;;;;;;;20.48;12.77;;;;;;;;;;4981119;28;20514;-62
2022/03/13 04:59:11;;;;;;;21.20;12.10;;;;;;;;;;4975771;28;20046;-63
2022/03/13 05:01:38;;;;;;;19.83;12.88;;;;;;;;;;4962186;28;20066;-63
2022/03/13 05:04:05;;;;;;;19.20;11.73;;;;;;;;;;4977683;28;20135;-61
2022/03/13 05:06:35;;;;;;;20.50;12.07;;;;;;;;;;4979800;28;20054;-62
2022/03/13 05:09:02;;;;;;;18.83;10.55;;;;;;;;;;4979922;28;20055;-63
2022/03/13 05:11:28;;;;;;;17.90;11.65;;;;;;;;;;4986285;28;20043;-62
2022/03/13 05:13:54;;;;;;;16.15;10.30;;;;;;;;;;4971849;28;20051;-63
2022/03/13 05:16:21;;;;;;;17.65;11.90;;;;;;;;;;4980391;28;20058;-63
2022/03/13 05:18:47;;;;;;;18.42;11.40;;;;;;;;;;4979606;28;20050;-62
2022/03/13 05:21:14;;;;;;;17.60;10.38;;;;;;;;;;4988908;28;20054;-62
2022/03/13 05:23:40;;;;;;;18.23;11.02;;;;;;;;;;4980231;28;20046;-62
2022/03/13 05:26:06;;;;;;;17.42;10.88;;;;;;;;;;4979326;28;20050;-62
2022/03/13 05:28:32;;;;;;;24.48;10.48;;;;;;;;;;4965176;28;20059;-62
2022/03/13 05:30:59;;;;;;;18.27;11.23;;;;;;;;;;4971214;28;20571;-62
2022/03/13 05:33:26;;;;;;;16.15;10.77;;;;;;;;;;4984760;28;20081;-63
2022/03/13 05:35:52;;;;;;;16.90;11.18;;;;;;;;;;4979020;28;20638;-63
2022/03/13 05:38:18;;;;;;;18.92;11.55;;;;;;;;;;4980970;28;20412;-63
2022/03/13 05:40:45;;;;;;;16.35;10.60;;;;;;;;;;4959508;28;20061;-63
2022/03/13 05:43:12;;;;;;;17.20;10.77;;;;;;;;;;4966300;28;20050;-63
2022/03/13 05:45:39;;;;;;;15.73;10.93;;;;;;;;;;4971040;28;20058;-63
2022/03/13 05:48:06;;;;;;;16.30;10.70;;;;;;;;;;4963831;28;20055;-63
2022/03/13 05:50:33;;;;;;;19.67;11.18;;;;;;;;;;4974417;28;20046;-62
2022/03/13 05:53:00;;;;;;;17.42;11.05;;;;;;;;;;4976458;28;20508;-62
2022/03/13 05:55:26;;;;;;;17.95;10.77;;;;;;;;;;4966397;28;20556;-62
2022/03/13 05:57:53;;;;;;;18.08;11.18;;;;;;;;;;4969555;28;20046;-63
2022/03/13 06:00:21;;;;;;;17.00;11.15;;;;;;;;;;4972214;28;20062;-62
2022/03/13 06:02:48;;;;;;;16.83;10.98;;;;;;;;;;4980471;28;20061;-62
2022/03/13 06:05:17;;;;;;;18.75;12.48;;;;;;;;;;4967030;28;20042;-62
2022/03/13 06:07:43;;;;;;;16.92;10.07;;;;;;;;;;4978787;28;20055;-63
2022/03/13 06:10:15;;;;;;;17.90;11.27;;;;;;;;;;4971415;28;20104;-63
2022/03/13 06:12:42;;;;;;;17.85;10.85;;;;;;;;;;4971351;28;20050;-62
2022/03/13 06:15:09;;;;;;;17.23;11.48;;;;;;;;;;4963559;28;20077;-63
2022/03/13 06:17:39;;;;;;;16.73;11.13;;;;;;;;;;4978213;28;20046;-63
2022/03/13 06:20:07;;;;;;;17.80;11.20;;;;;;;;;;4982598;28;20054;-62
2022/03/13 06:22:33;;;;;;;17.73;11.45;;;;;;;;;;4982527;28;20046;-63
2022/03/13 06:25:00;;;;;;;18.52;10.43;;;;;;;;;;4980714;28;20050;-63
2022/03/13 06:27:27;;;;;;;18.38;10.73;;;;;;;;;;4975850;28;20050;-63
2022/03/13 06:29:54;;;;;;;15.45;10.85;;;;;;;;;;4983908;28;20047;-62
2022/03/13 06:32:20;;;;;;;17.92;10.45;;;;;;;;;;4975576;28;20077;-63
2022/03/13 06:34:48;;;;;;;15.90;10.13;;;;;;;;;;4985585;28;20042;-63
2022/03/13 06:37:14;;;;;;;19.85;10.95;;;;;;;;;;4976440;28;20047;-62
2022/03/13 06:39:40;;;;;;;12.98;8.55;;;;;;;;;;4970707;28;20038;-63
2022/03/13 06:42:08;;;;;;;16.77;10.30;;;;;;;;;;4983849;28;20054;-62
2022/03/13 06:44:35;;;;;;;18.38;10.57;;;;;;;;;;4971444;28;20483;-62
2022/03/13 06:47:01;;;;;;;16.42;10.18;;;;;;;;;;4976650;28;20077;-63
2022/03/13 06:49:27;;;;;;;16.23;9.88;;;;;;;;;;4978249;28;20065;-62
2022/03/13 06:51:54;;;;;;;16.73;9.93;;;;;;;;;;4968810;28;20061;-62
2022/03/13 06:54:20;;;;;;;19.17;11.35;;;;;;;;;;4984974;28;20196;-63
2022/03/13 06:56:50;;;;;;;16.38;11.18;;;;;;;;;;4972782;28;20141;-62
2022/03/13 06:59:16;;;;;;;17.60;10.52;;;;;;;;;;4986276;28;20088;-63
2022/03/13 07:01:42;;;;;;;16.90;10.90;;;;;;;;;;4977989;28;20471;-62
2022/03/13 07:04:09;;;;;;;20.10;10.75;;;;;;;;;;4981329;28;20053;-63
2022/03/13 07:06:36;;;;;;;16.45;9.98;;;;;;;;;;4961267;28;20054;-63
2022/03/13 07:09:02;;;;;;;22.67;10.68;;;;;;;;;;4982540;28;20054;-62
2022/03/13 07:11:30;;;;;;;19.02;10.65;;;;;;;;;;4980328;28;20499;-62
2022/03/13 07:14:01;;;;;;;15.18;10.05;;;;;;;;;;4965190;28;20055;-62
2022/03/13 07:16:27;;;;;;;14.40;8.83;;;;;;;;;;4978126;28;20058;-62
2022/03/13 07:18:53;;;;;;;16.67;10.10;;;;;;;;;;4968106;28;20898;-63
2022/03/13 07:21:19;;;;;;;14.48;9.38;;;;;;;;;;4976997;28;20509;-62
2022/03/13 07:23:46;;;;;;;15.57;9.75;;;;;;;;;;4977861;28;20054;-62
2022/03/13 07:26:14;;;;;;;16.15;9.90;;;;;;;;;;4971958;28;20057;-63
2022/03/13 07:28:40;;;;;;;18.03;10.03;;;;;;;;;;4968633;28;20063;-62
2022/03/13 07:31:06;;;;;;;15.32;9.68;;;;;;;;;;4959667;28;20073;-63
2022/03/13 07:33:33;;;;;;;19.13;10.43;;;;;;;;;;4974034;28;20108;-62
2022/03/13 07:35:59;;;;;;;16.08;10.07;;;;;;;;;;4972309;28;20059;-63
2022/03/13 07:38:26;;;;;;;16.38;10.18;;;;;;;;;;4983740;28;20073;-63
2022/03/13 07:40:53;;;;;;;18.60;10.30;;;;;;;;;;4960237;28;20054;-62
2022/03/13 07:43:19;;;;;;;17.38;10.10;;;;;;;;;;4974509;28;20050;-63
2022/03/13 07:45:45;;;;;;;15.32;9.93;;;;;;;;;;4973641;28;20043;-63
2022/03/13 07:48:12;;;;;;;15.02;9.20;;;;;;;;;;4968369;28;20047;-63
2022/03/13 07:50:38;;;;;;;18.40;9.68;;;;;;;;;;4969672;28;20055;-63
2022/03/13 07:53:04;;;;;;;18.70;10.30;;;;;;;;;;4970388;28;20121;-63
2022/03/13 07:55:31;;;;;;;14.77;9.60;;;;;;;;;;4968428;28;20054;-61
2022/03/13 07:57:57;;;;;;;17.05;10.32;;;;;;;;;;4959421;28;20055;-63
2022/03/13 08:00:23;;;;;;;18.98;9.32;;;;;;;;;;4977344;28;20054;-62
2022/03/13 08:02:51;;;;;;;16.90;9.43;;;;;;;;;;4969721;28;20055;-62
2022/03/13 08:05:18;;;;;;;14.77;9.27;;;;;;;;;;4964956;28;20654;-63
2022/03/13 08:07:45;;;;;;;16.60;9.93;;;;;;;;;;4968029;28;20062;-63
2022/03/13 08:10:12;;;;;;;13.80;8.93;;;;;;;;;;4957307;28;20040;-62
2022/03/13 08:12:38;;;;;;;19.13;9.48;;;;;;;;;;4964616;28;20046;-62
2022/03/13 08:15:06;;;;;;;15.07;10.38;;;;;;;;;;4973105;28;20050;-63
2022/03/13 08:17:33;;;;;;;14.20;9.20;;;;;;;;;;4986566;28;20064;-62
2022/03/13 08:20:00;;;;;;;17.27;9.85;;;;;;;;;;4981210;28;20066;-61
2022/03/13 08:22:26;;;;;;;15.38;8.77;;;;;;;;;;4975540;28;20042;-62
2022/03/13 08:24:52;;;;;;;14.20;8.73;;;;;;;;;;4974968;28;20046;-62
2022/03/13 08:27:18;;;;;;;14.80;9.52;;;;;;;;;;4972937;28;20448;-63
2022/03/13 08:29:45;;;;;;;15.18;9.13;;;;;;;;;;4983652;28;20622;-63
2022/03/13 08:32:11;;;;;;;15.32;9.80;;;;;;;;;;4977587;28;20050;-62
2022/03/13 08:34:39;;;;;;;14.75;9.55;;;;;;;;;;4987774;28;20124;-61
2022/03/13 08:37:06;;;;;;;16.33;10.05;;;;;;;;;;4971554;28;20058;-62
2022/03/13 08:39:32;;;;;;;18.67;10.15;;;;;;;;;;4969413;28;21707;-63
2022/03/13 08:41:58;;;;;;;16.65;9.98;;;;;;;;;;4978744;28;20078;-62
2022/03/13 08:44:24;;;;;;;15.18;9.60;;;;;;;;;;4965309;28;20062;-63
2022/03/13 08:46:51;;;;;;;16.38;9.63;;;;;;;;;;4973990;28;20046;-62
2022/03/13 08:49:17;;;;;;;12.98;8.77;;;;;;;;;;4970710;28;20038;-63
2022/03/13 08:51:43;;;;;;;15.35;9.60;;;;;;;;;;4977321;28;20050;-63
2022/03/13 08:54:10;;;;;;;15.85;10.18;;;;;;;;;;4981448;28;20066;-62
2022/03/13 08:56:36;;;;;;;19.10;12.38;;;;;;;;;;4974947;28;20047;-62
2022/03/13 08:59:02;;;;;;;17.02;10.57;;;;;;;;;;4973152;28;20046;-62
2022/03/13 09:01:28;;;;;;;16.13;10.43;;;;;;;;;;4962752;28;20065;-62
2022/03/13 09:03:55;;;;;;;15.88;9.38;;;;;;;;;;4975243;28;20043;-64
2022/03/13 09:06:22;;;;;;;14.32;8.73;;;;;;;;;;4964117;28;20054;-62
2022/03/13 09:08:49;;;;;;;15.77;9.82;;;;;;;;;;4970833;28;20054;-63
2022/03/13 09:11:15;;;;;;;14.52;8.93;;;;;;;;;;4970985;28;20050;-63
2022/03/13 09:13:42;;;;;;;14.15;8.45;;;;;;;;;;4966967;28;20055;-62
2022/03/13 09:16:08;;;;;;;15.68;9.63;;;;;;;;;;4973925;28;20050;-63
2022/03/13 09:18:34;;;;;;;17.23;9.63;;;;;;;;;;4966911;28;20563;-63
2022/03/13 09:21:01;;;;;;;15.05;9.45;;;;;;;;;;4980915;28;20433;-63
2022/03/13 09:23:27;;;;;;;17.48;9.90;;;;;;;;;;4976329;28;20066;-63
2022/03/13 09:25:55;;;;;;;14.45;9.18;;;;;;;;;;4973791;28;20580;-63
2022/03/13 09:28:22;;;;;;;13.40;8.50;;;;;;;;;;4963619;28;20050;-63
2022/03/13 09:30:48;;;;;;;14.93;10.32;;;;;;;;;;4959850;28;20892;-63
2022/03/13 09:33:15;;;;;;;16.42;9.93;;;;;;;;;;4978963;28;20057;-63
2022/03/13 09:35:42;;;;;;;15.38;9.05;;;;;;;;;;4962693;28;20058;-62
2022/03/13 09:38:08;;;;;;;11.40;8.40;;;;;;;;;;4981914;28;20057;-62
2022/03/13 09:40:35;;;;;;;17.63;9.13;;;;;;;;;;4966712;28;20054;-62
2022/03/13 09:43:05;;;;;;;14.20;9.25;;;;;;;;;;4976050;28;20050;-63
2022/03/13 09:45:31;;;;;;;16.10;8.82;;;;;;;;;;4970424;28;20042;-63
2022/03/13 09:47:58;;;;;;;15.90;9.90;;;;;;;;;;4963941;28;20070;-63
2022/03/13 09:50:25;;;;;;;15.77;9.75;;;;;;;;;;4970333;28;20057;-63
2022/03/13 09:52:51;;;;;;;12.40;8.32;;;;;;;;;;4966821;28;20548;-62
2022/03/13 09:55:17;;;;;;;22.27;9.43;;;;;;;;;;4965102;28;20047;-63
2022/03/13 09:57:44;;;;;;;13.93;9.30;;;;;;;;;;4959827;28;20598;-61
2022/03/13 10:00:14;;;;;;;16.40;9.85;;;;;;;;;;4982671;28;20054;-63
2022/03/13 10:02:40;;;;;;;17.48;10.20;;;;;;;;;;4973387;28;20065;-60
2022/03/13 10:05:14;;;;;;;17.67;10.65;;;;;;;;;;4964340;28;20047;-63
2022/03/13 10:07:51;;;;;;;16.90;9.90;;;;;;;;;;4975043;28;20059;-60
2022/03/13 10:10:17;;;;;;;15.32;10.40;;;;;;;;;;4957733;28;20053;-61
2022/03/13 10:12:44;;;;;;;17.27;10.18;;;;;;;;;;4994660;28;20525;-61
2022/03/13 10:15:11;;;;;;;16.50;10.23;;;;;;;;;;4972381;28;20428;-61
2022/03/13 10:17:38;;;;;;;20.30;10.43;;;;;;;;;;4984373;28;20058;-61
2022/03/13 10:20:11;;;;;;;20.38;9.95;;;;;;;;;;4976150;28;20470;-63
2022/03/13 10:22:38;;;;;;;15.25;10.43;;;;;;;;;;4969594;28;20468;-61
2022/03/13 10:25:05;;;;;;;14.90;10.00;;;;;;;;;;4971196;28;20049;-61
2022/03/13 10:27:34;;;;;;;17.92;10.77;;;;;;;;;;4969140;28;20655;-61
2022/03/13 10:30:02;;;;;;;18.48;10.95;;;;;;;;;;4976135;28;20065;-61
2022/03/13 10:32:29;;;;;;;14.63;11.00;;;;;;;;;;4977474;28;20480;-61
2022/03/13 10:35:01;;;;;;;18.38;11.70;;;;;;;;;;4987415;28;20053;-61
2022/03/13 10:37:35;;;;;;;18.25;11.05;;;;;;;;;;4978003;28;20050;-61
2022/03/13 10:40:07;;;;;;;15.88;11.27;;;;;;;;;;4966438;28;20049;-61
2022/03/13 10:42:41;;;;;;;15.77;11.23;;;;;;;;;;4981265;28;20046;-61
2022/03/13 10:45:08;;;;;;;16.67;10.85;;;;;;;;;;4968894;28;20568;-61
2022/03/13 10:47:34;;;;;;;16.70;11.57;;;;;;;;;;4970910;28;20068;-61
2022/03/13 10:50:00;;;;;;;19.08;10.38;;;;;;;;;;4969220;28;20065;-61
2022/03/13 10:52:31;;;;;;;19.00;12.05;;;;;;;;;;4974732;28;20134;-61
2022/03/13 10:55:15;;;;;;;20.27;11.90;;;;;;;;;;4977566;28;20045;-61
2022/03/13 10:57:52;;;;;;;15.73;10.70;;;;;;;;;;4979172;28;20050;-61
2022/03/13 11:00:20;;;;;;;17.05;11.52;;;;;;;;;;4972878;28;20047;-61
2022/03/13 11:02:47;;;;;;;21.67;11.88;;;;;;;;;;4980138;28;20613;-61
2022/03/13 11:05:13;;;;;;;17.33;11.57;;;;;;;;;;4976985;28;20758;-61
2022/03/13 11:07:40;;;;;;;19.30;12.05;;;;;;;;;;4970791;28;20437;-63
2022/03/13 11:10:07;;;;;;;20.33;13.43;;;;;;;;;;4985981;28;20385;-63
2022/03/13 11:12:34;;;;;;;22.73;12.57;;;;;;;;;;4973760;28;20412;-61
2022/03/13 11:15:02;;;;;;;21.00;12.13;;;;;;;;;;4976990;28;20038;-63
2022/03/13 11:17:33;;;;;;;15.45;11.07;;;;;;;;;;4981698;28;20046;-64
2022/03/13 11:20:00;;;;;;;18.52;12.13;;;;;;;;;;4963585;28;20345;-63
2022/03/13 11:22:27;;;;;;;19.17;11.32;;;;;;;;;;4978123;28;20461;-63
2022/03/13 11:24:57;;;;;;;17.48;11.18;;;;;;;;;;4967401;28;20516;-63
2022/03/13 11:27:27;;;;;;;19.30;12.13;;;;;;;;;;4976342;28;20046;-63
2022/03/13 11:29:55;;;;;;;16.83;10.98;;;;;;;;;;4978616;28;20061;-63
2022/03/13 11:32:31;;;;;;;17.25;11.85;;;;;;;;;;4972577;28;20059;-63
2022/03/13 11:35:16;;;;;;;14.80;11.30;;;;;;;;;;4970568;28;20136;-63
2022/03/13 11:37:43;;;;;;;18.85;11.90;;;;;;;;;;4984427;28;20060;-64
2022/03/13 11:40:10;;;;;;;15.27;11.63;;;;;;;;;;4974126;28;20088;-61
2022/03/13 11:42:50;;;;;;;16.53;10.87;;;;;;;;;;4976436;28;20054;-62
2022/03/13 11:45:33;;;;;;;16.00;11.00;;;;;;;;;;4975719;28;20055;-62
2022/03/13 11:48:12;;;;;;;16.05;11.30;;;;;;;;;;4963201;28;20654;-61
2022/03/13 11:50:52;;;;;;;16.90;11.35;;;;;;;;;;4974991;28;20419;-62
2022/03/13 11:53:23;;;;;;;14.80;10.95;;;;;;;;;;4969153;28;20051;-61
2022/03/13 11:56:10;;;;;;;14.23;9.82;;;;;;;;;;4980423;28;20609;-62
2022/03/13 11:58:49;;;;;;;14.65;10.57;;;;;;;;;;4969997;28;20058;-62
2022/03/13 12:01:20;;;;;;;16.65;10.80;;;;;;;;;;4966244;28;20055;-63
2022/03/13 12:04:11;;;;;;;15.98;10.32;;;;;;;;;;4974227;28;20329;-62
2022/03/13 12:06:41;;;;;;;17.77;10.90;;;;;;;;;;4978769;28;20058;-64
2022/03/13 12:09:15;;;;;;;14.85;10.18;;;;;;;;;;4988961;28;20050;-64
2022/03/13 12:11:50;;;;;;;18.95;12.32;;;;;;;;;;4977154;28;20508;-64
2022/03/13 12:14:17;;;;;;;14.98;10.75;;;;;;;;;;4985618;28;20506;-61
2022/03/13 12:16:44;;;;;;;16.52;11.85;;;;;;;;;;4975803;28;20445;-64
2022/03/13 12:19:12;;;;;;;15.13;10.73;;;;;;;;;;4980687;28;20116;-62
2022/03/13 12:21:42;;;;;;;17.03;12.20;;;;;;;;;;4972538;28;20043;-64
2022/03/13 12:24:15;;;;;;;13.52;8.55;;;;;;;;;;4985917;28;20781;-63
2022/03/13 12:26:42;;;;;;;14.02;8.85;;;;;;;;;;4975279;28;20069;-64
2022/03/13 12:29:11;;;;;;;12.43;9.00;;;;;;;;;;4978006;28;20046;-64
2022/03/13 12:31:38;;;;;;;13.15;9.50;;;;;;;;;;4978287;28;20046;-64
2022/03/13 12:34:04;;;;;;;12.93;8.98;;;;;;;;;;4967070;28;20047;-64
2022/03/13 12:36:35;;;;;;;12.82;9.40;;;;;;;;;;4971313;28;20051;-64
2022/03/13 12:39:05;;;;;;;12.32;8.85;;;;;;;;;;4974222;28;20050;-63
2022/03/13 12:41:32;;;;;;;11.48;8.55;;;;;;;;;;4971718;28;20180;-63
2022/03/13 12:44:02;;;;;;;11.32;8.50;;;;;;;;;;4972034;28;20054;-62
2022/03/13 12:46:29;;;;;;;11.45;8.38;;;;;;;;;;4968343;28;20420;-63
2022/03/13 12:48:56;;;;;;;14.77;9.82;;;;;;;;;;4972015;28;20314;-63
2022/03/13 12:51:49;;;;;;;13.68;9.63;;;;;;;;;;4962256;28;20129;-63
2022/03/13 12:54:22;;;;;;;15.10;8.90;;;;;;;;;;4971255;28;20109;-63
2022/03/13 12:56:50;;;;;;;12.13;8.38;;;;;;;;;;4957846;28;20496;-64
2022/03/13 12:59:21;;;;;;;11.73;8.93;;;;;;;;;;4965638;28;20724;-63
2022/03/13 13:02:04;;;;;;;13.98;9.35;;;;;;;;;;4977584;28;20559;-63
2022/03/13 13:04:35;;;;;;;11.20;8.43;;;;;;;;;;4981952;28;20112;-64
2022/03/13 13:07:04;;;;;;;12.90;8.15;;;;;;;;;;4969407;28;20050;-63
2022/03/13 13:09:32;;;;;;;11.40;8.30;;;;;;;;;;4986059;28;20057;-64
2022/03/13 13:11:59;;;;;;;12.75;8.63;;;;;;;;;;4972920;28;20050;-63
2022/03/13 13:14:29;;;;;;;11.20;8.68;;;;;;;;;;4975360;28;20046;-64
2022/03/13 13:16:58;;;;;;;11.48;8.57;;;;;;;;;;4988299;28;20143;-62
2022/03/13 13:19:26;;;;;;;12.18;8.88;;;;;;;;;;4977294;28;20043;-64
2022/03/13 13:21:59;;;;;;;11.27;8.70;;;;;;;;;;4986368;28;20049;-62
2022/03/13 13:24:35;;;;;;;12.63;8.88;;;;;;;;;;4971026;28;20058;-62
2022/03/13 13:27:02;;;;;;;11.90;8.52;;;;;;;;;;4983106;28;20102;-62
2022/03/13 13:29:29;;;;;;;12.52;8.05;;;;;;;;;;4981620;28;20479;-62
2022/03/13 13:32:15;;;;;;;11.35;7.28;;;;;;;;;;4982935;28;20431;-62
2022/03/13 13:34:58;;;;;;;9.98;7.57;;;;;;;;;;4982707;28;20059;-62
2022/03/13 13:37:24;;;;;;;10.38;8.15;;;;;;;;;;4974001;28;20057;-62
2022/03/13 13:40:10;;;;;;;11.57;8.32;;;;;;;;;;4976015;28;20459;-63
2022/03/13 13:42:37;;;;;;;11.82;8.63;;;;;;;;;;4973657;28;20058;-63
2022/03/13 13:45:24;;;;;;;14.02;8.57;;;;;;;;;;4978730;28;20046;-63
2022/03/13 13:47:50;;;;;;;14.38;7.97;;;;;;;;;;4968985;28;20050;-63
2022/03/13 13:50:18;;;;;;;11.73;8.07;;;;;;;;;;4972574;28;20042;-62
2022/03/13 13:52:57;;;;;;;11.75;8.43;;;;;;;;;;4970159;28;20057;-62
2022/03/13 13:55:23;;;;;;;13.38;8.43;;;;;;;;;;4967656;28;20062;-62
2022/03/13 13:58:08;;;;;;;12.73;8.73;;;;;;;;;;4984034;28;20057;-63
2022/03/13 14:00:35;;;;;;;13.52;8.68;;;;;;;;;;4982687;28;20056;-62
2022/03/13 14:03:01;;;;;;;11.05;8.05;;;;;;;;;;4984814;28;20054;-62
2022/03/13 14:05:28;;;;;;;13.57;8.48;;;;;;;;;;4976048;28;20046;-63
2022/03/13 14:08:14;;;;;;;15.88;8.75;;;;;;;;;;4967405;28;20392;-62
2022/03/13 14:10:42;;;;;;;17.88;8.63;;;;;;;;;;4968783;28;20091;-62
2022/03/13 14:13:08;;;;;;;15.00;8.02;;;;;;;;;;4984549;28;20046;-63
2022/03/13 14:15:34;;;;;;;13.90;9.07;;;;;;;;;;4971651;28;20042;-63
2022/03/13 14:18:01;;;;;;;13.65;8.48;;;;;;;;;;4984837;28;20393;-64
2022/03/13 14:20:27;;;;;;;11.50;8.95;;;;;;;;;;4975109;28;20073;-62
2022/03/13 14:22:54;;;;;;;14.18;9.13;;;;;;;;;;4974011;28;20050;-62
2022/03/13 14:25:21;;;;;;;13.88;9.88;;;;;;;;;;4982698;28;20054;-63
2022/03/13 14:27:47;;;;;;;14.30;10.18;;;;;;;;;;4978154;28;20131;-63